createdAt,value
2019-03-21T00:00:44.611Z,3.67
2019-03-21T00:03:12.241Z,3.35
2019-03-21T00:05:39.664Z,4.18
2019-03-21T00:08:07.462Z,2.60
2019-03-21T00:13:32.899Z,6.60
2019-03-21T00:16:00.336Z,3.83
2019-03-21T00:18:27.930Z,2.85
2019-03-21T00:20:56.157Z,2.60
2019-03-21T00:23:24.161Z,3.37
2019-03-21T00:25:51.734Z,3.37
2019-03-21T00:28:19.128Z,2.97
2019-03-21T00:30:46.528Z,3.80
2019-03-21T00:33:13.955Z,2.42
2019-03-21T00:35:41.346Z,2.87
2019-03-21T00:38:08.764Z,2.55
2019-03-21T00:40:37.263Z,2.87
2019-03-21T00:43:04.707Z,3.60
2019-03-21T00:45:32.111Z,2.12
2019-03-21T00:47:59.561Z,3.42
2019-03-21T00:50:27.773Z,2.62
2019-03-21T00:52:55.250Z,2.35
2019-03-21T00:55:22.660Z,3.08
2019-03-21T00:57:50.062Z,2.40
2019-03-21T01:00:26.672Z,2.87
2019-03-21T01:02:54.084Z,3.67
2019-03-21T01:05:21.562Z,3.97
2019-03-21T01:07:48.976Z,3.65
2019-03-21T01:10:31.398Z,3.85
2019-03-21T01:12:58.880Z,2.70
2019-03-21T01:15:26.327Z,3.10
2019-03-21T01:17:53.778Z,2.65
2019-03-21T01:20:21.263Z,4.35
2019-03-21T01:22:48.702Z,3.97
2019-03-21T01:25:32.823Z,3.72
2019-03-21T01:28:00.281Z,3.30
2019-03-21T01:30:27.876Z,2.87
2019-03-21T01:32:55.301Z,2.72
2019-03-21T01:35:22.798Z,3.10
2019-03-21T01:37:50.209Z,3.87
2019-03-21T01:40:21.346Z,3.75
2019-03-21T01:42:49.670Z,3.42
2019-03-21T01:45:24.900Z,2.80
2019-03-21T01:47:53.032Z,2.90
2019-03-21T01:50:20.585Z,3.60
2019-03-21T01:52:48.026Z,3.58
2019-03-21T01:55:15.507Z,4.53
2019-03-21T01:57:42.994Z,4.25
2019-03-21T02:00:11.030Z,3.65
2019-03-21T02:02:38.427Z,5.12
2019-03-21T02:05:05.822Z,3.83
2019-03-21T02:07:33.221Z,3.92
2019-03-21T02:10:00.940Z,3.65
2019-03-21T02:12:28.860Z,4.55
2019-03-21T02:14:56.294Z,3.75
2019-03-21T02:17:23.703Z,3.58
2019-03-21T02:19:51.228Z,3.78
2019-03-21T02:22:18.780Z,5.28
2019-03-21T02:24:46.204Z,4.90
2019-03-21T02:27:13.624Z,4.55
2019-03-21T02:29:41.025Z,6.35
2019-03-21T02:32:08.656Z,6.95
2019-03-21T02:34:36.083Z,3.60
2019-03-21T02:37:03.478Z,5.60
2019-03-21T02:39:30.889Z,4.70
2019-03-21T02:41:58.345Z,6.18
2019-03-21T02:44:25.763Z,8.80
2019-03-21T02:46:53.291Z,8.82
2019-03-21T02:49:20.767Z,8.45
2019-03-21T02:51:48.174Z,7.45
2019-03-21T02:54:15.577Z,5.32
2019-03-21T02:56:43.006Z,8.63
2019-03-21T02:59:10.498Z,8.40
2019-03-21T03:01:37.883Z,6.80
2019-03-21T03:04:05.307Z,7.70
2019-03-21T03:06:32.701Z,7.20
2019-03-21T03:09:00.117Z,7.82
2019-03-21T03:11:27.499Z,8.10
2019-03-21T03:13:54.902Z,7.05
2019-03-21T03:16:22.296Z,6.55
2019-03-21T03:18:49.766Z,7.40
2019-03-21T03:21:17.159Z,7.68
2019-03-21T03:23:44.556Z,9.00
2019-03-21T03:26:11.954Z,5.57
2019-03-21T03:28:43.233Z,6.65
2019-03-21T03:31:10.682Z,6.47
2019-03-21T03:33:38.113Z,7.22
2019-03-21T03:36:05.521Z,7.62
2019-03-21T03:38:33.038Z,6.80
2019-03-21T03:41:02.447Z,6.28
2019-03-21T03:43:29.857Z,6.03
2019-03-21T03:45:57.326Z,6.60
2019-03-21T03:48:24.726Z,6.25
2019-03-21T03:50:52.148Z,6.65
2019-03-21T03:53:19.597Z,6.12
2019-03-21T03:55:47.007Z,5.70
2019-03-21T03:58:15.284Z,6.10
2019-03-21T04:00:42.841Z,5.55
2019-03-21T04:03:10.297Z,4.20
2019-03-21T04:05:39.326Z,5.87
2019-03-21T04:08:06.851Z,5.12
2019-03-21T04:10:38.874Z,7.10
2019-03-21T04:13:06.283Z,6.15
2019-03-21T04:15:33.680Z,5.60
2019-03-21T04:18:01.143Z,4.90
2019-03-21T04:20:30.247Z,5.10
2019-03-21T04:22:57.681Z,6.20
2019-03-21T04:25:28.834Z,5.78
2019-03-21T04:27:56.285Z,4.00
2019-03-21T04:30:23.704Z,4.90
2019-03-21T04:32:51.137Z,3.65
2019-03-21T04:35:18.609Z,5.85
2019-03-21T04:37:46.319Z,4.15
2019-03-21T04:40:13.717Z,4.03
2019-03-21T04:42:41.119Z,3.58
2019-03-21T04:45:11.132Z,6.93
2019-03-21T04:47:38.598Z,6.07
2019-03-21T04:50:06.148Z,5.32
2019-03-21T04:52:33.546Z,4.60
2019-03-21T04:55:00.938Z,3.45
2019-03-21T04:57:28.436Z,3.60
2019-03-21T04:59:55.821Z,4.28
2019-03-21T05:02:23.499Z,4.12
2019-03-21T05:04:50.914Z,4.90
2019-03-21T05:07:18.320Z,4.87
2019-03-21T05:09:45.743Z,5.12
2019-03-21T05:12:13.210Z,3.47
2019-03-21T05:14:40.649Z,3.70
2019-03-21T05:17:08.090Z,4.35
2019-03-21T05:19:35.503Z,3.90
2019-03-21T05:22:02.906Z,3.40
2019-03-21T05:24:30.313Z,3.55
2019-03-21T05:26:57.744Z,3.85
2019-03-21T05:29:25.183Z,3.78
2019-03-21T05:31:53.645Z,4.07
2019-03-21T05:34:21.054Z,4.43
2019-03-21T05:36:50.300Z,5.22
2019-03-21T05:39:15.880Z,4.05
2019-03-21T05:41:43.288Z,3.72
2019-03-21T05:44:13.863Z,4.07
2019-03-21T05:46:41.504Z,3.72
2019-03-21T05:49:08.927Z,4.90
2019-03-21T05:51:36.386Z,4.95
2019-03-21T05:54:03.784Z,6.15
2019-03-21T05:56:31.301Z,5.85
2019-03-21T05:58:59.214Z,5.95
2019-03-21T06:01:26.895Z,4.97
2019-03-21T06:03:54.291Z,4.50
2019-03-21T06:06:23.362Z,4.75
2019-03-21T06:08:50.880Z,4.07
2019-03-21T06:11:18.367Z,3.78
2019-03-21T06:13:45.838Z,3.85
2019-03-21T06:16:13.429Z,12.95
2019-03-21T06:18:46.327Z,7.12
2019-03-21T06:21:17.310Z,7.20
2019-03-21T06:23:44.722Z,4.25
2019-03-21T06:26:21.952Z,3.58
2019-03-21T06:28:49.389Z,3.62
2019-03-21T06:31:16.839Z,6.00
2019-03-21T06:33:44.227Z,5.15
2019-03-21T06:36:11.643Z,6.55
2019-03-21T06:38:39.038Z,5.78
2019-03-21T06:41:06.707Z,6.80
2019-03-21T06:43:34.122Z,6.03
2019-03-21T06:46:01.545Z,5.15
2019-03-21T06:48:31.815Z,8.07
2019-03-21T06:50:59.453Z,5.85
2019-03-21T06:53:27.593Z,7.47
2019-03-21T06:55:54.979Z,6.50
2019-03-21T06:58:23.339Z,5.82
2019-03-21T07:00:50.896Z,8.07
2019-03-21T07:03:18.351Z,6.60
2019-03-21T07:05:45.758Z,6.30
2019-03-21T07:08:13.347Z,5.05
2019-03-21T07:10:40.796Z,6.60
2019-03-21T07:13:08.219Z,5.57
2019-03-21T07:15:35.704Z,6.00
2019-03-21T07:18:03.543Z,4.90
2019-03-21T07:20:30.975Z,5.53
2019-03-21T07:22:58.430Z,7.03
2019-03-21T07:25:25.838Z,5.57
2019-03-21T07:27:53.241Z,4.78
2019-03-21T07:30:20.687Z,6.10
2019-03-21T07:32:48.687Z,6.30
2019-03-21T07:35:16.082Z,5.82
2019-03-21T07:37:43.727Z,4.55
2019-03-21T07:40:12.096Z,5.07
2019-03-21T07:42:39.531Z,4.80
2019-03-21T07:45:06.912Z,4.28
2019-03-21T07:47:34.736Z,5.37
2019-03-21T07:50:02.129Z,5.70
2019-03-21T07:52:29.535Z,5.35
2019-03-21T07:54:57.051Z,5.32
2019-03-21T07:57:24.442Z,4.37
2019-03-21T07:59:51.951Z,3.57
2019-03-21T08:02:19.439Z,5.28
2019-03-21T08:04:46.882Z,5.65
2019-03-21T08:07:14.314Z,5.50
2019-03-21T08:09:41.734Z,4.95
2019-03-21T08:12:09.731Z,4.57
2019-03-21T08:14:37.330Z,5.70
2019-03-21T08:19:32.487Z,5.78
2019-03-21T08:22:00.677Z,4.68
2019-03-21T08:24:28.087Z,5.50
2019-03-21T08:26:55.557Z,4.70
2019-03-21T08:34:17.153Z,28.45
2019-03-21T08:36:44.565Z,12.37
2019-03-21T08:39:12.020Z,9.43
2019-03-21T08:41:39.459Z,9.40
2019-03-21T08:44:06.859Z,9.10
2019-03-21T08:46:34.439Z,5.57
2019-03-21T08:49:02.199Z,8.90
2019-03-21T08:51:29.655Z,5.97
2019-03-21T08:53:57.078Z,6.85
2019-03-21T08:56:24.830Z,6.78
2019-03-21T08:58:52.224Z,6.32
2019-03-21T09:01:19.633Z,5.30
2019-03-21T09:03:47.146Z,6.87
2019-03-21T09:18:31.268Z,6.40
2019-03-21T09:20:58.704Z,6.30
2019-03-21T09:23:26.123Z,5.20
2019-03-21T09:25:53.581Z,5.35
2019-03-21T09:28:21.049Z,9.45
2019-03-21T09:30:50.514Z,6.12
2019-03-21T10:12:29.708Z,6.07
2019-03-21T10:14:57.163Z,5.97
2019-03-21T10:17:24.576Z,5.45
2019-03-21T10:19:52.088Z,6.43
2019-03-21T10:22:19.487Z,5.87
2019-03-21T10:24:47.154Z,7.20
2019-03-21T10:27:14.577Z,6.53
2019-03-21T10:41:56.913Z,6.30
2019-03-21T10:44:24.401Z,7.30
2019-03-21T10:46:51.857Z,7.78
2019-03-21T10:49:19.519Z,5.80
2019-03-21T11:21:11.726Z,5.90
2019-03-21T11:23:39.172Z,9.10
2019-03-21T11:26:06.977Z,8.38
2019-03-21T11:31:01.421Z,8.13
2019-03-21T11:33:29.021Z,6.47
2019-03-21T11:35:56.483Z,9.02
2019-03-21T11:38:23.999Z,6.87
2019-03-21T11:48:12.404Z,7.72
2019-03-21T11:50:40.010Z,8.00
2019-03-21T11:53:07.475Z,19.52
2019-03-21T11:55:34.908Z,11.97
2019-03-21T11:58:02.399Z,8.27
2019-03-21T12:00:36.349Z,6.60
2019-03-21T12:02:57.561Z,7.85
2019-03-21T12:05:25.061Z,7.03
2019-03-21T12:07:52.539Z,6.85
2019-03-21T12:10:19.937Z,6.97
2019-03-21T12:12:47.587Z,6.30
2019-03-21T12:15:15.057Z,6.05
2019-03-21T12:17:42.638Z,7.10
2019-03-21T12:20:10.123Z,7.55
2019-03-21T12:22:37.777Z,7.68
2019-03-21T12:32:26.379Z,7.72
2019-03-21T12:39:47.837Z,9.23
2019-03-21T12:42:15.489Z,7.20
2019-03-21T12:44:42.944Z,7.50
2019-03-21T12:47:10.381Z,8.73
2019-03-21T12:49:37.982Z,9.15
2019-03-21T12:52:05.399Z,9.25
2019-03-21T12:54:32.855Z,7.15
2019-03-21T12:57:00.284Z,8.60
2019-03-21T12:59:27.703Z,7.70
2019-03-21T13:01:55.222Z,6.80
2019-03-21T13:04:22.643Z,8.95
2019-03-21T13:06:50.217Z,8.75
2019-03-21T13:09:17.641Z,8.75
2019-03-21T13:11:46.004Z,6.65
2019-03-21T13:14:13.572Z,8.02
2019-03-21T13:16:41.041Z,8.82
2019-03-21T13:19:08.659Z,7.82
2019-03-21T13:21:36.084Z,7.80
2019-03-21T13:24:03.504Z,9.65
2019-03-21T13:26:30.926Z,8.35
2019-03-21T13:28:58.451Z,7.85
2019-03-21T13:31:25.844Z,8.82
2019-03-21T13:33:54.181Z,8.68
2019-03-21T13:36:21.602Z,7.20
2019-03-21T13:41:16.123Z,6.60
2019-03-21T13:43:43.573Z,10.48
2019-03-21T13:46:11.030Z,8.52
2019-03-21T13:48:38.557Z,8.35
2019-03-21T13:51:06.046Z,8.75
2019-03-21T13:53:33.448Z,11.80
2019-03-21T13:56:00.867Z,8.55
2019-03-21T13:58:29.014Z,10.40
2019-03-21T14:00:56.460Z,7.78
2019-03-21T14:03:25.400Z,12.37
2019-03-21T14:05:51.435Z,12.18
2019-03-21T14:13:12.754Z,9.70
2019-03-21T14:15:40.366Z,10.32
2019-03-21T14:18:07.791Z,10.27
2019-03-21T14:20:35.875Z,9.55
2019-03-21T14:23:03.343Z,8.10
2019-03-21T14:25:30.800Z,8.65
2019-03-21T14:27:58.228Z,8.98
2019-03-21T14:30:25.656Z,9.93
2019-03-21T14:32:53.087Z,10.45
2019-03-21T14:35:20.591Z,8.63
2019-03-21T14:37:47.999Z,10.95
2019-03-21T14:40:15.496Z,8.32
2019-03-21T14:42:43.028Z,9.85
2019-03-21T14:45:10.332Z,7.20
2019-03-21T14:47:37.748Z,10.48
2019-03-21T14:50:05.981Z,9.65
2019-03-21T14:52:33.539Z,10.63
2019-03-21T14:55:01.003Z,10.35
2019-03-21T14:57:28.439Z,10.77
2019-03-21T14:59:55.899Z,10.85
2019-03-21T15:02:23.548Z,10.13
2019-03-21T15:04:51.025Z,9.20
2019-03-21T15:07:18.858Z,8.85
2019-03-21T15:09:46.132Z,10.13
2019-03-21T15:12:13.616Z,8.43
2019-03-21T15:14:41.075Z,10.05
2019-03-21T15:17:08.605Z,7.95
2019-03-21T15:19:36.151Z,10.88
2019-03-21T15:22:03.828Z,9.88
2019-03-21T15:24:31.285Z,9.45
2019-03-21T15:26:58.746Z,7.78
2019-03-21T15:29:26.172Z,8.67
2019-03-21T15:31:53.644Z,7.80
2019-03-21T15:34:21.181Z,8.48
2019-03-21T15:36:48.576Z,9.87
2019-03-21T15:39:16.003Z,6.43
2019-03-21T15:41:43.409Z,8.20
2019-03-21T15:44:10.912Z,7.65
2019-03-21T15:46:39.169Z,7.70
2019-03-21T15:49:07.202Z,6.93
2019-03-21T15:51:34.623Z,8.93
2019-03-21T15:54:02.026Z,8.52
2019-03-21T15:56:29.474Z,6.90
2019-03-21T15:58:56.876Z,6.40
2019-03-21T16:01:24.336Z,7.62
2019-03-21T16:03:51.720Z,7.75
2019-03-21T16:06:19.201Z,6.28
2019-03-21T16:08:46.641Z,6.80
2019-03-21T16:11:14.062Z,7.55
2019-03-21T16:13:41.502Z,8.00
2019-03-21T16:16:09.013Z,5.65
2019-03-21T16:18:37.363Z,7.90
2019-03-21T16:23:32.043Z,6.35
2019-03-21T16:25:59.730Z,7.87
2019-03-21T16:28:27.411Z,8.30
2019-03-21T16:30:54.818Z,7.85
2019-03-21T16:33:22.234Z,8.98
2019-03-21T16:35:50.200Z,9.70
2019-03-21T16:38:17.604Z,7.37
2019-03-21T16:40:45.120Z,8.93
2019-03-21T16:43:12.563Z,8.75
2019-03-21T16:45:40.036Z,8.68
2019-03-21T16:48:09.160Z,8.73
2019-03-21T16:50:34.943Z,7.10
2019-03-21T16:53:02.394Z,11.07
2019-03-21T16:55:29.797Z,8.70
2019-03-21T16:57:57.284Z,7.63
2019-03-21T17:00:24.682Z,7.55
2019-03-21T17:02:52.100Z,9.23
2019-03-21T17:05:22.155Z,7.68
2019-03-21T17:07:47.285Z,7.30
2019-03-21T17:10:15.620Z,11.50
2019-03-21T17:12:43.112Z,7.75
2019-03-21T17:15:10.617Z,7.75
2019-03-21T17:17:38.038Z,9.32
2019-03-21T17:20:05.475Z,10.57
2019-03-21T17:22:33.003Z,7.12
2019-03-21T17:25:00.463Z,7.78
2019-03-21T17:27:27.883Z,9.10
2019-03-21T17:29:55.522Z,7.30
2019-03-21T17:32:22.942Z,7.10
2019-03-21T17:34:50.380Z,8.80
2019-03-21T17:37:17.831Z,8.50
2019-03-21T17:39:45.311Z,8.63
2019-03-21T17:42:12.778Z,8.35
2019-03-21T17:44:40.227Z,7.07
2019-03-21T17:47:07.680Z,9.10
2019-03-21T17:49:35.194Z,9.23
2019-03-21T17:52:02.696Z,9.18
2019-03-21T17:54:40.979Z,7.35
2019-03-21T17:56:57.547Z,8.50
2019-03-21T17:59:24.993Z,8.30
2019-03-21T18:01:52.429Z,8.38
2019-03-21T18:04:19.924Z,9.60
2019-03-21T18:06:47.368Z,8.52
2019-03-21T18:09:14.990Z,7.90
2019-03-21T18:11:42.482Z,6.85
2019-03-21T18:14:09.901Z,8.40
2019-03-21T18:16:37.536Z,9.02
2019-03-21T18:19:04.953Z,9.27
2019-03-21T18:21:32.500Z,8.73
2019-03-21T18:24:00.043Z,8.40
2019-03-21T18:26:27.457Z,10.73
2019-03-21T18:31:21.832Z,7.28
2019-03-21T18:33:49.281Z,8.75
2019-03-21T18:36:16.690Z,7.05
2019-03-21T18:38:56.613Z,6.80
2019-03-21T18:41:11.658Z,9.07
2019-03-21T18:43:39.114Z,6.95
2019-03-21T18:46:06.598Z,6.95
2019-03-21T18:48:34.026Z,7.95
2019-03-21T18:51:01.474Z,7.87
2019-03-21T18:53:28.900Z,9.27
2019-03-21T18:55:56.553Z,7.35
2019-03-21T18:58:23.967Z,8.70
2019-03-21T19:00:51.419Z,9.40
2019-03-21T19:03:18.850Z,8.68
2019-03-21T19:05:46.342Z,8.60
2019-03-21T19:08:13.769Z,9.95
2019-03-21T19:10:41.259Z,10.95
2019-03-21T19:13:08.710Z,7.75
2019-03-21T19:15:36.163Z,9.40
2019-03-21T19:18:03.712Z,9.05
2019-03-21T19:20:31.179Z,9.43
2019-03-21T19:22:58.615Z,7.43
2019-03-21T19:25:26.287Z,7.90
2019-03-21T19:27:53.759Z,8.25
2019-03-21T19:30:21.195Z,7.15
2019-03-21T19:32:48.663Z,6.85
2019-03-21T19:35:16.228Z,8.95
2019-03-21T19:37:43.659Z,9.15
2019-03-21T19:40:13.895Z,8.90
2019-03-21T19:42:41.415Z,9.00
2019-03-21T19:45:10.666Z,8.55
2019-03-21T19:47:38.207Z,8.23
2019-03-21T19:50:06.776Z,10.57
2019-03-21T19:55:01.181Z,8.85
2019-03-21T19:57:29.642Z,8.25
2019-03-21T19:59:57.065Z,9.57
2019-03-21T20:02:24.493Z,9.20
2019-03-21T20:04:51.917Z,7.35
2019-03-21T20:07:19.507Z,8.85
2019-03-21T20:09:47.227Z,8.82
2019-03-21T20:12:14.623Z,5.72
2019-03-21T20:14:42.092Z,7.50
2019-03-21T20:17:09.545Z,7.57
2019-03-21T20:19:36.960Z,8.00
2019-03-21T20:22:04.397Z,7.60
2019-03-21T20:24:31.843Z,6.72
2019-03-21T20:26:59.794Z,7.22
2019-03-21T20:29:27.626Z,6.45
2019-03-21T20:31:55.098Z,6.45
2019-03-21T20:34:22.500Z,6.70
2019-03-21T20:36:49.940Z,6.53
2019-03-21T20:39:17.485Z,7.10
2019-03-21T20:41:45.022Z,6.45
2019-03-21T20:44:15.467Z,7.07
2019-03-21T20:46:39.881Z,9.68
2019-03-21T20:49:07.303Z,7.60
2019-03-21T20:51:34.714Z,6.90
2019-03-21T20:54:02.243Z,8.05
2019-03-21T20:56:29.693Z,6.45
2019-03-21T20:58:57.223Z,6.25
2019-03-21T21:01:24.644Z,7.43
2019-03-21T21:03:52.447Z,5.65
2019-03-21T21:06:20.042Z,6.55
2019-03-21T21:11:14.455Z,6.37
2019-03-21T21:18:35.821Z,9.20
2019-03-21T21:21:03.271Z,6.40
2019-03-21T21:28:24.925Z,8.95
2019-03-21T21:30:53.301Z,10.00
2019-03-21T21:33:20.843Z,8.45
2019-03-21T21:35:48.260Z,8.38
2019-03-21T21:38:15.803Z,9.73
2019-03-21T21:40:43.418Z,9.73
2019-03-21T21:43:10.922Z,10.02
2019-03-21T21:45:38.351Z,6.47
2019-03-21T21:48:05.755Z,10.13
2019-03-21T21:50:33.312Z,8.85
2019-03-21T21:53:02.366Z,7.55
2019-03-21T21:55:30.916Z,10.27
2019-03-21T21:57:58.587Z,8.73
2019-03-21T22:00:25.976Z,8.15
2019-03-21T22:02:53.425Z,8.23
2019-03-21T22:05:21.833Z,7.72
2019-03-21T22:07:49.252Z,8.73
2019-03-21T22:10:16.648Z,7.00
2019-03-21T22:12:44.107Z,9.30
2019-03-21T22:15:11.522Z,7.40
2019-03-21T22:17:39.042Z,6.25
2019-03-21T22:20:06.434Z,8.52
2019-03-21T22:22:34.067Z,6.90
2019-03-21T22:25:01.537Z,6.28
2019-03-21T22:27:29.206Z,7.95
2019-03-21T22:29:57.528Z,6.43
2019-03-21T22:32:25.165Z,8.70
2019-03-21T22:34:52.593Z,7.25
2019-03-21T22:37:20.113Z,7.30
2019-03-21T22:39:47.559Z,8.13
2019-03-21T22:42:15.607Z,7.37
2019-03-21T22:44:43.165Z,9.15
2019-03-21T22:47:10.611Z,7.65
2019-03-21T22:49:38.112Z,8.35
2019-03-21T22:52:05.524Z,9.07
2019-03-21T22:54:32.958Z,6.35
2019-03-21T22:57:00.490Z,7.20
2019-03-21T22:59:28.087Z,6.50
2019-03-21T23:01:55.475Z,6.43
2019-03-21T23:04:22.900Z,8.15
2019-03-21T23:06:51.290Z,8.57
2019-03-21T23:09:18.714Z,6.00
2019-03-21T23:11:46.333Z,9.52
2019-03-21T23:14:13.873Z,8.02
2019-03-21T23:16:41.282Z,9.23
2019-03-21T23:19:08.832Z,10.77
2019-03-21T23:21:36.289Z,8.02
2019-03-21T23:24:03.702Z,8.40
2019-03-21T23:26:31.244Z,6.32
2019-03-21T23:28:58.636Z,7.32
2019-03-21T23:31:26.331Z,8.07
2019-03-21T23:33:53.755Z,7.60
2019-03-21T23:36:21.288Z,9.10
2019-03-21T23:38:49.124Z,6.68
2019-03-21T23:41:16.527Z,7.37
2019-03-21T23:43:43.936Z,7.80
2019-03-21T23:46:11.334Z,7.12
2019-03-21T23:48:38.819Z,5.43
2019-03-21T23:51:06.266Z,7.18
2019-03-21T23:53:33.705Z,8.20
2019-03-21T23:56:01.100Z,7.62
2019-03-21T23:58:28.497Z,7.32
